createdAt,value
2022-12-14T00:00:31.088Z,19.83
2022-12-14T00:03:00.214Z,17.88
2022-12-14T00:05:33.625Z,16.70
2022-12-14T00:08:47.493Z,50.80
2022-12-14T00:11:23.300Z,37.72
2022-12-14T00:13:56.482Z,23.52
2022-12-14T00:16:26.971Z,23.30
2022-12-14T00:19:08.694Z,21.08
2022-12-14T00:21:38.731Z,21.33
2022-12-14T00:24:12.160Z,17.42
2022-12-14T00:26:42.240Z,15.55
2022-12-14T00:29:15.055Z,16.48
2022-12-14T00:31:48.621Z,21.95
2022-12-14T00:34:18.280Z,19.02
2022-12-14T00:36:56.084Z,32.15
2022-12-14T00:39:25.330Z,15.85
2022-12-14T00:41:54.211Z,14.50
2022-12-14T00:44:27.393Z,19.13
2022-12-14T00:46:56.420Z,16.88
2022-12-14T00:49:45.868Z,15.43
2022-12-14T00:52:18.085Z,32.88
2022-12-14T00:54:47.203Z,19.50
2022-12-14T00:57:20.975Z,22.67
2022-12-14T00:59:52.595Z,17.48
2022-12-14T01:02:27.397Z,23.23
2022-12-14T01:04:56.762Z,24.05
2022-12-14T01:07:26.178Z,24.23
2022-12-14T01:09:59.355Z,23.90
2022-12-14T01:12:28.233Z,23.23
2022-12-14T01:15:01.587Z,26.58
2022-12-14T01:17:34.570Z,20.25
2022-12-14T01:20:07.510Z,21.60
2022-12-14T01:22:42.423Z,26.65
2022-12-14T01:25:12.130Z,35.85
2022-12-14T01:27:41.583Z,22.98
2022-12-14T01:30:13.743Z,34.58
2022-12-14T01:32:42.943Z,30.63
2022-12-14T01:35:12.426Z,14.32
2022-12-14T01:37:41.569Z,14.82
2022-12-14T01:40:11.740Z,21.83
2022-12-14T01:42:40.998Z,24.65
2022-12-14T01:45:22.036Z,19.60
2022-12-14T01:47:56.529Z,15.68
2022-12-14T01:50:32.185Z,19.15
2022-12-14T01:53:04.954Z,15.18
2022-12-14T01:55:39.806Z,17.17
2022-12-14T01:58:21.646Z,18.13
2022-12-14T02:00:55.530Z,13.25
2022-12-14T02:03:28.883Z,14.13
2022-12-14T02:06:01.724Z,17.48
2022-12-14T02:08:31.144Z,15.18
2022-12-14T02:11:02.803Z,14.02
2022-12-14T02:13:34.819Z,21.50
2022-12-14T02:16:05.726Z,13.75
2022-12-14T02:18:38.395Z,18.55
2022-12-14T02:21:21.229Z,17.85
2022-12-14T02:24:55.775Z,12.02
2022-12-14T02:27:47.211Z,17.65
2022-12-14T02:30:22.461Z,18.10
2022-12-14T02:33:15.536Z,20.05
2022-12-14T02:35:50.597Z,17.70
2022-12-14T02:38:34.053Z,18.35
2022-12-14T02:41:17.636Z,16.75
2022-12-14T02:44:14.355Z,20.15
2022-12-14T02:47:03.074Z,17.40
2022-12-14T02:49:51.246Z,14.27
2022-12-14T02:52:31.799Z,17.40
2022-12-14T02:55:08.443Z,19.67
2022-12-14T02:57:42.635Z,14.10
2022-12-14T03:00:13.962Z,16.25
2022-12-14T03:02:47.418Z,23.20
2022-12-14T03:05:16.993Z,11.73
2022-12-14T03:07:59.367Z,13.88
2022-12-14T03:10:51.672Z,13.98
2022-12-14T03:13:32.977Z,12.02
2022-12-14T03:16:25.323Z,19.02
2022-12-14T03:19:17.294Z,17.98
2022-12-14T03:22:02.465Z,15.18
2022-12-14T03:24:58.021Z,17.05
2022-12-14T03:27:43.380Z,14.88
2022-12-14T03:30:58.932Z,14.43
2022-12-14T03:33:50.087Z,15.27
2022-12-14T03:36:30.489Z,14.10
2022-12-14T03:39:12.142Z,17.48
2022-12-14T03:41:53.633Z,14.50
2022-12-14T03:44:32.422Z,15.40
2022-12-14T03:47:12.295Z,11.98
2022-12-14T03:49:52.723Z,20.45
2022-12-14T03:52:29.568Z,14.40
2022-12-14T03:55:09.007Z,16.38
2022-12-14T03:57:50.595Z,17.88
2022-12-14T04:00:23.319Z,14.20
2022-12-14T04:03:04.002Z,17.02
2022-12-14T04:05:42.845Z,17.75
2022-12-14T04:08:24.213Z,16.02
2022-12-14T04:11:17.324Z,16.33
2022-12-14T04:14:10.734Z,15.80
2022-12-14T04:17:06.113Z,15.23
2022-12-14T04:19:43.721Z,17.58
2022-12-14T04:22:16.669Z,16.27
2022-12-14T04:25:22.876Z,16.08
2022-12-14T04:27:58.581Z,14.85
2022-12-14T04:30:30.080Z,15.75
2022-12-14T04:33:24.303Z,17.35
2022-12-14T04:35:58.230Z,16.65
2022-12-14T04:38:34.917Z,19.42
2022-12-14T04:41:10.837Z,16.75
2022-12-14T04:43:48.958Z,16.50
2022-12-14T04:46:24.413Z,14.75
2022-12-14T04:49:00.714Z,17.90
2022-12-14T04:51:34.990Z,20.00
2022-12-14T04:54:10.037Z,16.30
2022-12-14T04:56:45.881Z,21.20
2022-12-14T04:59:14.803Z,21.17
2022-12-14T05:01:56.447Z,27.08
2022-12-14T05:04:35.548Z,24.25
2022-12-14T05:07:16.920Z,23.73
2022-12-14T05:09:55.160Z,19.55
2022-12-14T05:12:35.226Z,22.75
2022-12-14T05:15:12.685Z,18.80
2022-12-14T05:17:46.107Z,27.00
2022-12-14T05:20:17.143Z,15.82
2022-12-14T05:22:48.606Z,15.57
2022-12-14T05:25:18.467Z,17.42
2022-12-14T05:27:51.557Z,19.25
2022-12-14T05:30:22.826Z,14.52
2022-12-14T05:33:02.124Z,13.32
2022-12-14T05:35:31.369Z,12.80
2022-12-14T05:38:00.375Z,15.77
2022-12-14T05:40:29.491Z,14.48
2022-12-14T05:43:10.033Z,14.30
2022-12-14T05:45:39.087Z,15.93
2022-12-14T05:48:08.547Z,15.80
2022-12-14T05:50:37.166Z,18.77
2022-12-14T05:53:06.052Z,17.77
2022-12-14T05:55:34.674Z,16.50
2022-12-14T05:58:03.741Z,16.90
2022-12-14T06:00:33.576Z,21.25
2022-12-14T06:03:02.455Z,18.92
2022-12-14T06:05:31.101Z,20.17
2022-12-14T06:07:59.923Z,16.67
2022-12-14T06:10:28.423Z,19.30
2022-12-14T06:12:58.698Z,21.23
2022-12-14T06:15:33.793Z,16.10
2022-12-14T06:18:04.555Z,20.27
2022-12-14T06:20:33.721Z,16.10
2022-12-14T06:23:02.885Z,13.25
2022-12-14T06:25:31.810Z,12.82
2022-12-14T06:28:01.043Z,18.60
2022-12-14T06:30:30.061Z,13.88
2022-12-14T06:32:58.895Z,15.05
2022-12-14T06:35:31.784Z,15.18
2022-12-14T06:38:00.278Z,16.35
2022-12-14T06:40:29.652Z,16.30
2022-12-14T06:42:58.495Z,15.85
2022-12-14T06:45:27.220Z,16.02
2022-12-14T06:47:55.952Z,13.35
2022-12-14T06:50:24.393Z,14.35
2022-12-14T06:52:57.679Z,20.55
2022-12-14T06:55:28.037Z,18.42
2022-12-14T06:58:08.671Z,17.92
2022-12-14T07:00:41.480Z,17.10
2022-12-14T07:03:20.200Z,14.38
2022-12-14T07:05:58.284Z,14.40
2022-12-14T07:08:29.878Z,17.83
2022-12-14T07:11:07.285Z,13.98
2022-12-14T07:13:40.289Z,11.63
2022-12-14T07:16:14.420Z,12.73
2022-12-14T07:18:46.800Z,17.27
2022-12-14T07:21:20.785Z,22.80
2022-12-14T07:23:59.480Z,17.80
2022-12-14T07:26:31.868Z,18.15
2022-12-14T07:29:01.737Z,17.58
2022-12-14T07:31:31.626Z,18.50
2022-12-14T07:34:01.543Z,18.13
2022-12-14T07:36:32.958Z,20.90
2022-12-14T07:39:18.701Z,18.75
2022-12-14T07:41:48.949Z,16.30
2022-12-14T07:44:20.726Z,22.63
2022-12-14T07:46:49.238Z,16.98
2022-12-14T07:49:21.830Z,17.20
2022-12-14T07:51:50.673Z,16.92
2022-12-14T07:54:21.351Z,23.02
2022-12-14T07:56:51.135Z,16.17
2022-12-14T07:59:19.884Z,17.90
2022-12-14T08:01:48.774Z,27.95
2022-12-14T08:04:20.018Z,19.40
2022-12-14T08:06:49.853Z,15.50
2022-12-14T08:09:20.789Z,47.63
2022-12-14T08:11:49.656Z,27.83
2022-12-14T08:14:19.607Z,16.33
2022-12-14T08:16:49.242Z,20.48
2022-12-14T08:19:18.191Z,24.30
2022-12-14T08:21:47.381Z,19.13
2022-12-14T08:24:16.867Z,19.90
2022-12-14T08:26:49.438Z,16.05
2022-12-14T08:29:19.449Z,23.77
2022-12-14T08:31:48.545Z,25.40
2022-12-14T08:34:25.437Z,23.17
2022-12-14T08:36:54.339Z,19.15
2022-12-14T08:39:22.862Z,19.83
2022-12-14T08:41:53.206Z,19.00
2022-12-14T08:44:21.773Z,20.02
2022-12-14T08:46:53.517Z,18.52
2022-12-14T08:49:22.017Z,14.55
2022-12-14T08:51:50.378Z,19.50
2022-12-14T08:54:20.009Z,17.00
2022-12-14T08:56:49.308Z,19.20
2022-12-14T08:59:37.002Z,15.45
2022-12-14T09:02:08.516Z,15.65
2022-12-14T09:04:37.063Z,16.45
2022-12-14T09:07:08.521Z,17.50
2022-12-14T09:09:37.659Z,14.77
2022-12-14T09:12:07.778Z,14.77
2022-12-14T09:14:38.184Z,18.42
2022-12-14T09:17:07.582Z,22.25
2022-12-14T09:19:38.617Z,16.30
2022-12-14T09:22:07.298Z,19.60
2022-12-14T09:24:39.057Z,20.63
2022-12-14T09:27:07.268Z,18.35
2022-12-14T09:29:37.123Z,15.68
2022-12-14T09:32:05.907Z,18.63
2022-12-14T09:34:34.709Z,16.75
2022-12-14T09:37:04.715Z,16.42
2022-12-14T09:39:34.163Z,16.83
2022-12-14T09:42:16.806Z,16.98
2022-12-14T09:44:58.297Z,12.63
2022-12-14T09:47:34.004Z,17.40
2022-12-14T09:50:05.064Z,16.40
2022-12-14T09:52:38.697Z,15.82
2022-12-14T09:55:20.306Z,13.93
2022-12-14T09:57:52.486Z,18.88
2022-12-14T10:00:25.515Z,21.20
2022-12-14T10:03:14.998Z,16.95
2022-12-14T10:05:56.609Z,15.98
2022-12-14T10:08:32.241Z,25.35
2022-12-14T10:11:08.002Z,22.48
2022-12-14T10:13:50.437Z,24.05
2022-12-14T10:16:33.529Z,22.20
2022-12-14T10:19:19.393Z,19.25
2022-12-14T10:21:52.506Z,16.38
2022-12-14T10:24:24.764Z,18.27
2022-12-14T10:26:59.247Z,22.55
2022-12-14T10:29:39.775Z,20.02
2022-12-14T10:32:23.009Z,22.15
2022-12-14T10:34:54.408Z,18.80
2022-12-14T10:37:28.225Z,18.75
2022-12-14T10:40:14.542Z,17.38
2022-12-14T10:43:00.481Z,20.58
2022-12-14T10:45:41.069Z,15.50
2022-12-14T10:48:35.176Z,20.55
2022-12-14T10:51:13.954Z,18.42
2022-12-14T10:53:49.850Z,18.35
2022-12-14T10:56:22.944Z,22.23
2022-12-14T10:59:38.889Z,19.30
2022-12-14T11:02:20.456Z,20.58
2022-12-14T11:04:56.008Z,20.33
2022-12-14T11:07:27.894Z,19.27
2022-12-14T11:10:19.249Z,23.48
2022-12-14T11:13:02.486Z,20.50
2022-12-14T11:15:35.421Z,20.45
2022-12-14T11:18:07.652Z,23.00
2022-12-14T11:20:37.899Z,20.35
2022-12-14T11:23:21.481Z,21.02
2022-12-14T11:25:52.116Z,17.85
2022-12-14T11:28:36.488Z,19.95
2022-12-14T11:31:08.715Z,20.17
2022-12-14T11:33:49.996Z,20.35
2022-12-14T11:36:29.591Z,17.27
2022-12-14T11:39:00.035Z,18.20
2022-12-14T11:41:33.802Z,18.15
2022-12-14T11:44:08.490Z,19.80
2022-12-14T11:46:49.590Z,21.58
2022-12-14T11:49:29.128Z,19.80
2022-12-14T11:52:03.735Z,20.58
2022-12-14T11:54:34.107Z,21.55
2022-12-14T11:57:11.650Z,21.30
2022-12-14T11:59:43.680Z,24.63
2022-12-14T12:02:22.112Z,18.65
2022-12-14T12:04:56.726Z,21.13
2022-12-14T12:07:34.386Z,27.73
2022-12-14T12:10:16.714Z,22.73
2022-12-14T12:12:55.043Z,72.45
2022-12-14T12:15:27.127Z,23.63
2022-12-14T12:18:01.983Z,22.50
2022-12-14T12:20:36.231Z,26.75
2022-12-14T12:23:14.699Z,58.95
2022-12-14T12:25:44.806Z,23.25
2022-12-14T12:28:19.721Z,25.73
2022-12-14T12:30:52.972Z,32.08
2022-12-14T12:33:28.227Z,38.28
2022-12-14T12:36:00.926Z,26.88
2022-12-14T12:38:50.204Z,28.88
2022-12-14T12:41:32.119Z,28.88
2022-12-14T12:44:07.792Z,26.95
2022-12-14T12:47:14.964Z,30.63
2022-12-14T12:49:37.960Z,30.33
2022-12-14T12:52:15.960Z,80.97
2022-12-14T12:54:59.002Z,34.72
2022-12-14T12:57:36.273Z,32.60
2022-12-14T13:00:08.146Z,40.70
2022-12-14T13:02:44.046Z,35.20
2022-12-14T13:05:45.590Z,119.15
2022-12-14T13:08:24.016Z,20.08
2022-12-14T13:11:24.634Z,59.22
2022-12-14T13:13:50.328Z,35.30
2022-12-14T13:16:29.675Z,37.55
2022-12-14T13:19:25.308Z,39.60
2022-12-14T13:21:57.158Z,40.05
2022-12-14T13:24:28.754Z,66.95
2022-12-14T13:27:47.150Z,50.13
2022-12-14T13:30:40.090Z,35.10
2022-12-14T13:33:56.784Z,32.63
2022-12-14T13:37:13.853Z,36.58
2022-12-14T13:40:14.302Z,32.55
2022-12-14T13:42:55.607Z,44.08
2022-12-14T13:45:30.616Z,37.05
2022-12-14T13:48:00.767Z,64.95
2022-12-14T13:50:36.599Z,125.32
2022-12-14T13:53:14.956Z,38.17
2022-12-14T13:55:53.192Z,43.92
2022-12-14T13:58:29.849Z,52.55
2022-12-14T14:01:07.607Z,52.45
2022-12-14T14:03:51.311Z,25.13
2022-12-14T14:06:39.985Z,40.10
2022-12-14T14:09:59.210Z,34.90
2022-12-14T14:12:48.560Z,70.43
2022-12-14T14:16:26.727Z,45.95
2022-12-14T14:18:54.515Z,34.58
2022-12-14T14:22:06.307Z,36.40
2022-12-14T14:25:09.623Z,37.90
2022-12-14T14:28:04.746Z,36.80
2022-12-14T14:30:40.087Z,44.40
2022-12-14T14:33:49.617Z,36.70
2022-12-14T14:36:33.795Z,36.15
2022-12-14T14:39:10.693Z,36.28
2022-12-14T14:41:59.863Z,50.88
2022-12-14T14:44:37.009Z,39.20
2022-12-14T14:47:14.681Z,52.45
2022-12-14T14:49:44.387Z,44.10
2022-12-14T14:53:03.677Z,37.92
2022-12-14T14:56:00.385Z,35.65
2022-12-14T14:58:34.112Z,38.90
2022-12-14T15:01:36.264Z,46.78
2022-12-14T15:04:23.050Z,37.08
2022-12-14T15:07:06.540Z,38.13
2022-12-14T15:09:40.456Z,42.47
2022-12-14T15:12:23.411Z,37.83
2022-12-14T15:14:56.590Z,39.33
2022-12-14T15:17:26.390Z,42.20
2022-12-14T15:19:56.285Z,41.85
2022-12-14T15:22:26.902Z,94.60
2022-12-14T15:24:59.397Z,35.40
2022-12-14T15:27:30.583Z,79.40
2022-12-14T15:30:06.531Z,36.83
2022-12-14T15:32:35.382Z,34.83
2022-12-14T15:35:08.411Z,38.55
2022-12-14T15:37:44.893Z,48.03
2022-12-14T15:40:16.726Z,41.97
2022-12-14T15:42:49.858Z,36.13
2022-12-14T15:45:22.475Z,41.75
2022-12-14T15:47:51.219Z,64.82
2022-12-14T15:50:27.292Z,43.13
2022-12-14T15:52:57.563Z,35.50
2022-12-14T15:55:38.519Z,41.33
2022-12-14T15:58:10.367Z,40.78
2022-12-14T16:00:45.555Z,35.70
2022-12-14T16:03:24.776Z,44.95
2022-12-14T16:05:53.326Z,37.75
2022-12-14T16:08:22.709Z,41.28
2022-12-14T16:10:53.289Z,41.75
2022-12-14T16:13:29.497Z,47.58
2022-12-14T16:16:00.675Z,45.63
2022-12-14T16:18:28.934Z,42.33
2022-12-14T16:20:59.766Z,39.00
2022-12-14T16:23:31.904Z,41.97
2022-12-14T16:26:03.185Z,49.03
2022-12-14T16:28:33.278Z,51.45
2022-12-14T16:31:05.925Z,49.65
2022-12-14T16:33:39.074Z,43.40
2022-12-14T16:36:09.986Z,47.72
2022-12-14T16:38:43.091Z,50.65
2022-12-14T16:41:11.389Z,41.75
2022-12-14T16:43:43.459Z,49.28
2022-12-14T16:46:18.811Z,52.78
2022-12-14T16:49:24.172Z,51.08
2022-12-14T16:52:09.246Z,52.28
2022-12-14T16:54:39.226Z,52.53
2022-12-14T16:57:17.625Z,53.60
2022-12-14T16:59:47.940Z,65.78
2022-12-14T17:02:38.311Z,53.50
2022-12-14T17:05:18.912Z,83.35
2022-12-14T17:07:50.436Z,46.97
2022-12-14T17:10:24.125Z,68.75
2022-12-14T17:12:56.995Z,64.45
2022-12-14T17:15:26.413Z,63.55
2022-12-14T17:17:58.145Z,70.70
2022-12-14T17:20:30.412Z,67.70
2022-12-14T17:23:09.734Z,45.17
2022-12-14T17:25:47.743Z,51.03
2022-12-14T17:28:25.326Z,52.03
2022-12-14T17:30:57.446Z,47.30
2022-12-14T17:33:29.004Z,46.05
2022-12-14T17:35:57.874Z,105.85
2022-12-14T17:38:29.651Z,98.60
2022-12-14T17:41:01.370Z,68.38
2022-12-14T17:43:30.081Z,57.33
2022-12-14T17:46:01.228Z,61.60
2022-12-14T17:48:34.063Z,73.07
2022-12-14T17:51:02.883Z,54.78
2022-12-14T17:53:32.540Z,69.75
2022-12-14T17:56:01.120Z,58.90
2022-12-14T17:58:29.326Z,52.75
2022-12-14T18:01:03.560Z,70.72
2022-12-14T18:03:37.042Z,59.90
2022-12-14T18:06:05.749Z,59.22
2022-12-14T18:08:34.039Z,63.10
2022-12-14T18:11:07.633Z,56.60
2022-12-14T18:13:40.301Z,49.72
2022-12-14T18:16:11.596Z,50.97
2022-12-14T18:18:41.727Z,53.97
2022-12-14T18:21:17.527Z,69.30
2022-12-14T18:23:46.409Z,60.33
2022-12-14T18:26:20.945Z,53.47
2022-12-14T18:28:49.985Z,55.38
2022-12-14T18:31:23.919Z,51.00
2022-12-14T18:33:54.096Z,56.63
2022-12-14T18:36:22.619Z,73.43
2022-12-14T18:38:52.561Z,52.10
2022-12-14T18:41:26.177Z,58.55
2022-12-14T18:43:55.786Z,47.58
2022-12-14T18:46:24.403Z,44.28
2022-12-14T18:48:54.314Z,42.03
2022-12-14T18:51:29.712Z,60.42
2022-12-14T18:53:59.168Z,57.55
2022-12-14T18:56:30.488Z,61.08
2022-12-14T18:59:01.555Z,62.63
2022-12-14T19:01:32.385Z,55.67
2022-12-14T19:04:02.205Z,48.95
2022-12-14T19:06:46.295Z,60.67
2022-12-14T19:09:15.468Z,55.80
2022-12-14T19:11:44.566Z,59.53
2022-12-14T19:14:13.182Z,59.10
2022-12-14T19:16:50.463Z,60.90
2022-12-14T19:19:23.551Z,57.80
2022-12-14T19:21:53.749Z,52.35
2022-12-14T19:24:22.119Z,51.38
2022-12-14T19:26:50.321Z,52.60
2022-12-14T19:29:21.413Z,52.17
2022-12-14T19:31:54.385Z,53.05
2022-12-14T19:34:24.848Z,55.58
2022-12-14T19:36:53.322Z,51.30
2022-12-14T19:39:21.620Z,51.53
2022-12-14T19:41:49.923Z,71.50
2022-12-14T19:44:18.207Z,62.25
2022-12-14T19:46:49.338Z,61.05
2022-12-14T19:49:17.776Z,63.20
2022-12-14T19:51:47.524Z,53.08
2022-12-14T19:54:15.911Z,60.75
2022-12-14T19:56:44.151Z,63.20
2022-12-14T19:59:12.440Z,57.72
2022-12-14T20:01:46.312Z,72.22
2022-12-14T20:04:19.543Z,65.75
2022-12-14T20:06:52.333Z,59.47
2022-12-14T20:09:20.737Z,59.17
2022-12-14T20:11:49.036Z,56.17
2022-12-14T20:14:17.393Z,80.00
2022-12-14T20:16:45.826Z,74.68
2022-12-14T20:19:14.913Z,75.07
2022-12-14T20:21:49.147Z,81.70
2022-12-14T20:24:20.270Z,62.47
2022-12-14T20:26:49.376Z,62.33
2022-12-14T20:29:20.487Z,81.97
2022-12-14T20:31:54.606Z,78.00
2022-12-14T20:34:23.619Z,68.18
2022-12-14T20:36:52.179Z,77.60
2022-12-14T20:39:22.230Z,135.68
2022-12-14T20:41:51.311Z,104.38
2022-12-14T20:44:30.694Z,88.50
2022-12-14T20:47:09.624Z,120.07
2022-12-14T20:49:38.965Z,71.07
2022-12-14T20:52:07.524Z,75.72
2022-12-14T20:54:37.756Z,88.95
2022-12-14T20:57:06.273Z,66.60
2022-12-14T20:59:37.361Z,66.60
2022-12-14T21:02:10.843Z,61.65
2022-12-14T21:04:39.444Z,63.40
2022-12-14T21:07:07.738Z,60.10
2022-12-14T21:09:37.870Z,69.55
2022-12-14T21:12:24.918Z,63.53
2022-12-14T21:14:55.072Z,65.00
2022-12-14T21:17:26.585Z,58.53
2022-12-14T21:19:58.742Z,64.88
2022-12-14T21:22:30.487Z,56.72
2022-12-14T21:25:03.705Z,60.90
2022-12-14T21:27:34.049Z,62.08
2022-12-14T21:30:03.446Z,63.90
2022-12-14T21:32:35.299Z,77.25
2022-12-14T21:35:03.813Z,67.72
2022-12-14T21:37:32.571Z,69.95
2022-12-14T21:40:03.944Z,71.40
2022-12-14T21:42:31.422Z,70.40
2022-12-14T21:44:59.916Z,65.80
2022-12-14T21:47:30.696Z,63.45
2022-12-14T21:49:59.394Z,64.10
2022-12-14T21:52:29.253Z,61.08
2022-12-14T21:55:06.645Z,72.90
2022-12-14T21:57:53.675Z,62.15
2022-12-14T22:00:23.091Z,60.50
2022-12-14T22:02:54.883Z,59.20
2022-12-14T22:05:29.874Z,57.03
2022-12-14T22:07:58.903Z,58.92
2022-12-14T22:10:29.326Z,54.58
2022-12-14T22:12:58.109Z,60.78
2022-12-14T22:15:29.793Z,54.10
2022-12-14T22:17:58.650Z,67.25
2022-12-14T22:20:30.823Z,60.88
2022-12-14T22:23:00.087Z,64.70
2022-12-14T22:25:35.621Z,50.90
2022-12-14T22:28:04.594Z,53.88
2022-12-14T22:30:36.674Z,54.25
2022-12-14T22:33:05.953Z,55.65
2022-12-14T22:35:34.778Z,53.30
2022-12-14T22:38:07.110Z,51.30
2022-12-14T22:40:47.064Z,55.42
2022-12-14T22:43:17.168Z,55.78
2022-12-14T22:45:48.725Z,47.83
2022-12-14T22:48:19.659Z,59.35
2022-12-14T22:50:51.033Z,48.90
2022-12-14T22:53:19.589Z,47.15
2022-12-14T22:55:52.737Z,54.70
2022-12-14T22:58:23.878Z,55.88
2022-12-14T23:00:55.744Z,56.17
2022-12-14T23:03:26.734Z,56.88
2022-12-14T23:06:01.909Z,49.25
2022-12-14T23:08:30.828Z,57.03
2022-12-14T23:11:20.505Z,48.83
2022-12-14T23:14:13.510Z,53.75
2022-12-14T23:17:00.132Z,51.72
2022-12-14T23:19:49.922Z,53.50
2022-12-14T23:22:41.765Z,50.28
2022-12-14T23:25:28.343Z,52.50
2022-12-14T23:28:16.730Z,53.53
2022-12-14T23:31:03.550Z,58.22
2022-12-14T23:33:54.397Z,53.65
2022-12-14T23:36:41.694Z,46.00
2022-12-14T23:39:27.793Z,57.35
2022-12-14T23:42:14.197Z,54.80
2022-12-14T23:45:02.514Z,138.43
2022-12-14T23:47:49.291Z,159.60
2022-12-14T23:50:36.027Z,287.38
2022-12-14T23:53:24.429Z,197.48
2022-12-14T23:56:13.513Z,185.10
2022-12-14T23:59:00.114Z,81.70
